sensor_id;sensor_type;location;lat;lon;timestamp;pressure;altitude;pressure_sealevel;temperature;humidity
73842;BME280;62184;52.006;5.924;2023-05-21T00:00:39;101118.78;;;18.77;45.88
73842;BME280;62184;52.006;5.924;2023-05-21T00:03:05;101120.59;;;18.76;45.74
73842;BME280;62184;52.006;5.924;2023-05-21T00:05:34;101123.31;;;18.76;46.22
73842;BME280;62184;52.006;5.924;2023-05-21T00:08:01;101122.28;;;18.79;45.83
73842;BME280;62184;52.006;5.924;2023-05-21T00:10:27;101121.31;;;18.80;45.90
73842;BME280;62184;52.006;5.924;2023-05-21T00:12:53;101118.53;;;18.81;45.80
73842;BME280;62184;52.006;5.924;2023-05-21T00:15:20;101114.78;;;18.84;46.15
73842;BME280;62184;52.006;5.924;2023-05-21T00:17:46;101112.78;;;18.87;45.99
73842;BME280;62184;52.006;5.924;2023-05-21T00:20:13;101113.50;;;18.91;45.76
73842;BME280;62184;52.006;5.924;2023-05-21T00:22:42;101105.38;;;18.91;45.90
73842;BME280;62184;52.006;5.924;2023-05-21T00:25:09;101105.28;;;18.92;46.09
73842;BME280;62184;52.006;5.924;2023-05-21T00:27:36;101105.19;;;18.94;46.40
73842;BME280;62184;52.006;5.924;2023-05-21T00:30:04;101106.00;;;18.96;46.29
73842;BME280;62184;52.006;5.924;2023-05-21T00:32:32;101100.50;;;18.97;46.17
73842;BME280;62184;52.006;5.924;2023-05-21T00:34:58;101095.97;;;18.98;46.11
73842;BME280;62184;52.006;5.924;2023-05-21T00:37:24;101098.59;;;18.99;46.24
73842;BME280;62184;52.006;5.924;2023-05-21T00:39:53;101091.34;;;19.00;45.90
73842;BME280;62184;52.006;5.924;2023-05-21T00:42:20;101089.59;;;18.99;45.92
73842;BME280;62184;52.006;5.924;2023-05-21T00:44:46;101078.84;;;18.97;46.33
73842;BME280;62184;52.006;5.924;2023-05-21T00:47:13;101083.38;;;18.97;46.21
73842;BME280;62184;52.006;5.924;2023-05-21T00:49:40;101084.41;;;18.94;46.31
73842;BME280;62184;52.006;5.924;2023-05-21T00:52:06;101084.34;;;18.96;46.20
73842;BME280;62184;52.006;5.924;2023-05-21T00:54:33;101083.31;;;18.98;46.59
73842;BME280;62184;52.006;5.924;2023-05-21T00:57:03;101083.09;;;19.01;46.57
73842;BME280;62184;52.006;5.924;2023-05-21T00:59:30;101073.94;;;19.04;46.49
73842;BME280;62184;52.006;5.924;2023-05-21T01:01:57;101083.97;;;19.02;46.33
73842;BME280;62184;52.006;5.924;2023-05-21T01:04:23;101078.66;;;19.00;46.79
73842;BME280;62184;52.006;5.924;2023-05-21T01:06:50;101080.59;;;18.98;46.69
73842;BME280;62184;52.006;5.924;2023-05-21T01:09:16;101075.25;;;18.97;47.03
73842;BME280;62184;52.006;5.924;2023-05-21T01:11:47;101076.22;;;18.96;46.50
73842;BME280;62184;52.006;5.924;2023-05-21T01:14:19;101076.38;;;18.93;47.08
73842;BME280;62184;52.006;5.924;2023-05-21T01:16:48;101076.56;;;18.90;46.72
73842;BME280;62184;52.006;5.924;2023-05-21T01:19:17;101076.38;;;18.93;46.97
73842;BME280;62184;52.006;5.924;2023-05-21T01:21:48;101079.00;;;18.94;47.38
73842;BME280;62184;52.006;5.924;2023-05-21T01:24:18;101064.16;;;18.86;46.88
73842;BME280;62184;52.006;5.924;2023-05-21T01:26:45;101058.81;;;18.84;47.41
73842;BME280;62184;52.006;5.924;2023-05-21T01:29:11;101064.06;;;18.87;47.14
73842;BME280;62184;52.006;5.924;2023-05-21T01:31:52;101064.00;;;18.89;47.11
73842;BME280;62184;52.006;5.924;2023-05-21T01:34:28;101064.84;;;18.89;47.19
73842;BME280;62184;52.006;5.924;2023-05-21T01:37:05;101056.81;;;18.88;47.35
73842;BME280;62184;52.006;5.924;2023-05-21T01:39:43;101056.97;;;18.85;47.14
73842;BME280;62184;52.006;5.924;2023-05-21T01:42:17;101059.69;;;18.85;47.29
73842;BME280;62184;52.006;5.924;2023-05-21T01:44:49;101053.41;;;18.84;47.47
73842;BME280;62184;52.006;5.924;2023-05-21T01:47:22;101054.47;;;18.82;47.27
73842;BME280;62184;52.006;5.924;2023-05-21T01:49:51;101054.47;;;18.82;47.63
73842;BME280;62184;52.006;5.924;2023-05-21T01:52:17;101051.84;;;18.80;47.37
73842;BME280;62184;52.006;5.924;2023-05-21T01:54:46;101051.84;;;18.80;47.24
73842;BME280;62184;52.006;5.924;2023-05-21T01:57:13;101055.41;;;18.81;47.80
73842;BME280;62184;52.006;5.924;2023-05-21T01:59:39;101046.50;;;18.79;47.55
73842;BME280;62184;52.006;5.924;2023-05-21T02:02:06;101051.13;;;18.77;47.93
73842;BME280;62184;52.006;5.924;2023-05-21T02:04:32;101040.38;;;18.75;47.99
73842;BME280;62184;52.006;5.924;2023-05-21T02:06:58;101045.03;;;18.73;47.83
73842;BME280;62184;52.006;5.924;2023-05-21T02:09:25;101042.31;;;18.73;48.18
73842;BME280;62184;52.006;5.924;2023-05-21T02:11:54;101045.19;;;18.70;47.98
73842;BME280;62184;52.006;5.924;2023-05-21T02:14:21;101046.31;;;18.66;48.13
73842;BME280;62184;52.006;5.924;2023-05-21T02:16:47;101045.44;;;18.65;48.31
73842;BME280;62184;52.006;5.924;2023-05-21T02:19:13;101041.78;;;18.66;48.12
73842;BME280;62184;52.006;5.924;2023-05-21T02:21:40;101046.22;;;18.67;48.31
73842;BME280;62184;52.006;5.924;2023-05-21T02:24:06;101039.09;;;18.66;48.07
73842;BME280;62184;52.006;5.924;2023-05-21T02:26:33;101037.41;;;18.64;48.70
73842;BME280;62184;52.006;5.924;2023-05-21T02:29:02;101041.00;;;18.64;48.68
73842;BME280;62184;52.006;5.924;2023-05-21T02:31:29;101034.72;;;18.64;48.21
73842;BME280;62184;52.006;5.924;2023-05-21T02:33:55;101034.00;;;18.60;48.60
73842;BME280;62184;52.006;5.924;2023-05-21T02:36:21;101038.78;;;18.55;48.65
73842;BME280;62184;52.006;5.924;2023-05-21T02:38:48;101037.91;;;18.55;48.55
73842;BME280;62184;52.006;5.924;2023-05-21T02:41:14;101037.84;;;18.56;48.88
73842;BME280;62184;52.006;5.924;2023-05-21T02:43:40;101046.72;;;18.58;48.74
73842;BME280;62184;52.006;5.924;2023-05-21T02:46:09;101045.94;;;18.56;48.69
73842;BME280;62184;52.006;5.924;2023-05-21T02:48:36;101035.06;;;18.58;48.89
73842;BME280;62184;52.006;5.924;2023-05-21T02:51:03;101038.78;;;18.55;48.85
73842;BME280;62184;52.006;5.924;2023-05-21T02:53:29;101030.13;;;18.49;48.88
73842;BME280;62184;52.006;5.924;2023-05-21T02:55:55;101028.59;;;18.43;48.86
73842;BME280;62184;52.006;5.924;2023-05-21T02:58:22;101028.78;;;18.40;49.11
73842;BME280;62184;52.006;5.924;2023-05-21T03:00:48;101025.19;;;18.40;49.13
73842;BME280;62184;52.006;5.924;2023-05-21T03:03:17;101022.56;;;18.38;49.19
73842;BME280;62184;52.006;5.924;2023-05-21T03:05:44;101020.66;;;18.40;49.25
73842;BME280;62184;52.006;5.924;2023-05-21T03:08:10;101024.13;;;18.42;49.14
73842;BME280;62184;52.006;5.924;2023-05-21T03:10:37;101023.97;;;18.45;49.20
73842;BME280;62184;52.006;5.924;2023-05-21T03:13:03;101026.56;;;18.48;49.12
73842;BME280;62184;52.006;5.924;2023-05-21T03:15:29;101028.31;;;18.49;49.49
73842;BME280;62184;52.006;5.924;2023-05-21T03:17:56;101021.91;;;18.50;49.48
73842;BME280;62184;52.006;5.924;2023-05-21T03:20:25;101021.75;;;18.53;49.27
73842;BME280;62184;52.006;5.924;2023-05-21T03:22:51;101025.41;;;18.52;49.34
73842;BME280;62184;52.006;5.924;2023-05-21T03:25:17;101013.81;;;18.50;49.44
73842;BME280;62184;52.006;5.924;2023-05-21T03:27:44;101017.38;;;18.51;49.67
73842;BME280;62184;52.006;5.924;2023-05-21T03:30:11;101022.72;;;18.52;49.79
73842;BME280;62184;52.006;5.924;2023-05-21T03:32:38;101016.19;;;18.56;49.62
73842;BME280;62184;52.006;5.924;2023-05-21T03:35:05;101014.16;;;18.60;49.72
73842;BME280;62184;52.006;5.924;2023-05-21T03:37:35;101018.72;;;18.59;49.34
73842;BME280;62184;52.006;5.924;2023-05-21T03:40:02;101012.53;;;18.57;49.59
73842;BME280;62184;52.006;5.924;2023-05-21T03:42:29;101019.78;;;18.57;49.68
73842;BME280;62184;52.006;5.924;2023-05-21T03:44:55;101021.41;;;18.59;49.56
73842;BME280;62184;52.006;5.924;2023-05-21T03:47:22;101014.09;;;18.61;49.35
73842;BME280;62184;52.006;5.924;2023-05-21T03:49:48;101010.34;;;18.64;49.52
73842;BME280;62184;52.006;5.924;2023-05-21T03:52:15;101018.28;;;18.67;49.58
73842;BME280;62184;52.006;5.924;2023-05-21T03:54:43;101013.84;;;18.66;49.27
73842;BME280;62184;52.006;5.924;2023-05-21T03:57:10;101012.97;;;18.65;49.42
73842;BME280;62184;52.006;5.924;2023-05-21T03:59:36;101016.44;;;18.67;49.37
73842;BME280;62184;52.006;5.924;2023-05-21T04:02:04;101017.44;;;18.66;49.60
73842;BME280;62184;52.006;5.924;2023-05-21T04:04:30;101006.41;;;18.69;49.74
73842;BME280;62184;52.006;5.924;2023-05-21T04:06:57;101016.28;;;18.70;49.81
73842;BME280;62184;52.006;5.924;2023-05-21T04:09:23;101016.28;;;18.70;49.94
73842;BME280;62184;52.006;5.924;2023-05-21T04:11:52;101011.69;;;18.73;49.99
73842;BME280;62184;52.006;5.924;2023-05-21T04:14:19;101022.41;;;18.74;49.47
73842;BME280;62184;52.006;5.924;2023-05-21T04:16:45;101018.72;;;18.75;49.83
73842;BME280;62184;52.006;5.924;2023-05-21T04:19:11;101020.47;;;18.76;49.71
73842;BME280;62184;52.006;5.924;2023-05-21T04:21:38;101013.31;;;18.75;49.66
73842;BME280;62184;52.006;5.924;2023-05-21T04:24:04;101027.72;;;18.76;49.87
73842;BME280;62184;52.006;5.924;2023-05-21T04:26:31;101033.94;;;18.78;49.90
73842;BME280;62184;52.006;5.924;2023-05-21T04:29:00;101032.00;;;18.80;50.04
73842;BME280;62184;52.006;5.924;2023-05-21T04:31:26;101031.84;;;18.83;50.19
73842;BME280;62184;52.006;5.924;2023-05-21T04:33:52;101033.56;;;18.84;50.23
73842;BME280;62184;52.006;5.924;2023-05-21T04:36:19;101031.84;;;18.83;50.35
73842;BME280;62184;52.006;5.924;2023-05-21T04:38:45;101033.84;;;18.79;50.44
73842;BME280;62184;52.006;5.924;2023-05-21T04:41:12;101041.09;;;18.79;50.54
73842;BME280;62184;52.006;5.924;2023-05-21T04:43:39;101034.88;;;18.77;50.50
73842;BME280;62184;52.006;5.924;2023-05-21T04:46:08;101034.19;;;18.73;50.53
73842;BME280;62184;52.006;5.924;2023-05-21T04:48:34;101044.50;;;18.66;50.92
73842;BME280;62184;52.006;5.924;2023-05-21T04:51:01;101038.97;;;18.68;50.97
73842;BME280;62184;52.006;5.924;2023-05-21T04:53:27;101031.72;;;18.68;50.82
73842;BME280;62184;52.006;5.924;2023-05-21T04:55:54;101024.75;;;18.64;50.64
73842;BME280;62184;52.006;5.924;2023-05-21T04:58:20;101032.16;;;18.61;50.94
73842;BME280;62184;52.006;5.924;2023-05-21T05:00:46;101034.78;;;18.62;51.55
73842;BME280;62184;52.006;5.924;2023-05-21T05:03:15;101035.66;;;18.63;51.57
73842;BME280;62184;52.006;5.924;2023-05-21T05:05:42;101030.09;;;18.66;51.24
73842;BME280;62184;52.006;5.924;2023-05-21T05:08:08;101029.09;;;18.67;51.16
73842;BME280;62184;52.006;5.924;2023-05-21T05:10:35;101029.03;;;18.68;51.30
73842;BME280;62184;52.006;5.924;2023-05-21T05:13:01;101023.81;;;18.65;51.21
73842;BME280;62184;52.006;5.924;2023-05-21T05:15:28;101022.06;;;18.64;51.54
73842;BME280;62184;52.006;5.924;2023-05-21T05:17:54;101022.66;;;18.69;51.55
73842;BME280;62184;52.006;5.924;2023-05-21T05:20:23;101015.06;;;18.76;51.47
73842;BME280;62184;52.006;5.924;2023-05-21T05:22:49;101027.47;;;18.80;51.55
73842;BME280;62184;52.006;5.924;2023-05-21T05:25:16;101027.31;;;18.83;51.54
73842;BME280;62184;52.006;5.924;2023-05-21T05:27:43;101017.00;;;18.90;51.44
73842;BME280;62184;52.006;5.924;2023-05-21T05:30:10;101027.66;;;18.93;51.44
73842;BME280;62184;52.006;5.924;2023-05-21T05:32:37;101024.78;;;18.96;51.52
73842;BME280;62184;52.006;5.924;2023-05-21T05:35:04;101024.84;;;18.94;51.40
73842;BME280;62184;52.006;5.924;2023-05-21T05:37:35;101015.78;;;18.95;51.31
73842;BME280;62184;52.006;5.924;2023-05-21T05:40:01;101027.31;;;18.99;51.17
73842;BME280;62184;52.006;5.924;2023-05-21T05:42:28;101021.78;;;19.00;51.43
73842;BME280;62184;52.006;5.924;2023-05-21T05:44:54;101030.34;;;19.08;51.08
73842;BME280;62184;52.006;5.924;2023-05-21T05:47:21;101015.78;;;19.11;51.43
73842;BME280;62184;52.006;5.924;2023-05-21T05:49:47;101011.94;;;19.15;51.03
73842;BME280;62184;52.006;5.924;2023-05-21T05:52:13;101020.00;;;19.17;51.27
73842;BME280;62184;52.006;5.924;2023-05-21T05:54:42;101012.53;;;19.20;51.29
73842;BME280;62184;52.006;5.924;2023-05-21T05:57:09;101017.88;;;19.22;50.83
73842;BME280;62184;52.006;5.924;2023-05-21T05:59:35;101020.13;;;19.29;51.15
73842;BME280;62184;52.006;5.924;2023-05-21T06:02:02;101019.81;;;19.35;50.99
73842;BME280;62184;52.006;5.924;2023-05-21T06:04:28;101021.63;;;19.35;50.88
73842;BME280;62184;52.006;5.924;2023-05-21T06:06:55;101019.00;;;19.33;50.73
73842;BME280;62184;52.006;5.924;2023-05-21T06:09:21;101018.84;;;19.36;51.01
73842;BME280;62184;52.006;5.924;2023-05-21T06:11:51;101012.47;;;19.37;50.87
73842;BME280;62184;52.006;5.924;2023-05-21T06:14:17;101014.13;;;19.40;50.71
73842;BME280;62184;52.006;5.924;2023-05-21T06:16:43;101022.69;;;19.48;50.88
73842;BME280;62184;52.006;5.924;2023-05-21T06:19:10;101016.97;;;19.53;50.69
73842;BME280;62184;52.006;5.924;2023-05-21T06:21:36;101014.88;;;19.58;50.82
73842;BME280;62184;52.006;5.924;2023-05-21T06:24:03;101010.22;;;19.60;50.49
73842;BME280;62184;52.006;5.924;2023-05-21T06:26:30;101011.97;;;19.61;50.57
73842;BME280;62184;52.006;5.924;2023-05-21T06:28:59;101016.84;;;19.70;50.72
73842;BME280;62184;52.006;5.924;2023-05-21T06:31:25;101008.34;;;19.76;50.10
73842;BME280;62184;52.006;5.924;2023-05-21T06:33:52;101018.75;;;19.83;50.10
73842;BME280;62184;52.006;5.924;2023-05-21T06:36:18;101015.66;;;19.90;50.00
73842;BME280;62184;52.006;5.924;2023-05-21T06:38:45;101018.00;;;19.96;50.19
73842;BME280;62184;52.006;5.924;2023-05-21T06:41:11;101017.13;;;20.09;50.43
73842;BME280;62184;52.006;5.924;2023-05-21T06:43:37;101014.66;;;20.20;49.78
73842;BME280;62184;52.006;5.924;2023-05-21T06:46:06;101009.63;;;20.29;49.65
73842;BME280;62184;52.006;5.924;2023-05-21T06:48:33;101021.75;;;20.37;49.14
73842;BME280;62184;52.006;5.924;2023-05-21T06:50:59;101016.63;;;20.47;49.22
73842;BME280;62184;52.006;5.924;2023-05-21T06:53:26;101013.53;;;20.67;49.23
73842;BME280;62184;52.006;5.924;2023-05-21T06:55:52;101006.69;;;20.88;49.10
73842;BME280;62184;52.006;5.924;2023-05-21T06:58:19;101007.47;;;20.90;48.49
73842;BME280;62184;52.006;5.924;2023-05-21T07:00:45;101008.03;;;20.95;48.62
73842;BME280;62184;52.006;5.924;2023-05-21T07:03:15;101003.78;;;21.06;48.02
73842;BME280;62184;52.006;5.924;2023-05-21T07:05:41;101007.56;;;21.17;47.79
73842;BME280;62184;52.006;5.924;2023-05-21T07:08:07;101003.28;;;21.40;48.18
73842;BME280;62184;52.006;5.924;2023-05-21T07:10:34;100995.41;;;21.62;47.00
73842;BME280;62184;52.006;5.924;2023-05-21T07:13:00;100993.66;;;21.76;47.06
73842;BME280;62184;52.006;5.924;2023-05-21T07:15:27;101004.53;;;21.88;46.73
73842;BME280;62184;52.006;5.924;2023-05-21T07:17:53;100996.50;;;22.12;46.65
73842;BME280;62184;52.006;5.924;2023-05-21T07:20:22;100991.59;;;22.30;45.63
73842;BME280;62184;52.006;5.924;2023-05-21T07:22:48;100982.66;;;22.28;45.73
73842;BME280;62184;52.006;5.924;2023-05-21T07:25:15;100993.25;;;22.32;45.63
73842;BME280;62184;52.006;5.924;2023-05-21T07:27:42;100982.00;;;22.37;45.31
73842;BME280;62184;52.006;5.924;2023-05-21T07:30:09;100982.88;;;22.37;45.14
73842;BME280;62184;52.006;5.924;2023-05-21T07:32:36;100993.78;;;22.37;45.33
73842;BME280;62184;52.006;5.924;2023-05-21T07:35:03;100990.19;;;22.37;45.13
73842;BME280;62184;52.006;5.924;2023-05-21T07:37:32;100988.88;;;22.42;44.58
73842;BME280;62184;52.006;5.924;2023-05-21T07:39:59;100987.03;;;22.43;44.82
73842;BME280;62184;52.006;5.924;2023-05-21T07:42:25;100988.88;;;22.42;44.71
73842;BME280;62184;52.006;5.924;2023-05-21T07:44:52;100986.91;;;22.44;44.58
73842;BME280;62184;52.006;5.924;2023-05-21T07:47:19;100989.09;;;22.52;45.26
73842;BME280;62184;52.006;5.924;2023-05-21T07:49:45;100993.47;;;22.67;44.51
73842;BME280;62184;52.006;5.924;2023-05-21T07:52:12;100987.66;;;22.85;44.52
73842;BME280;62184;52.006;5.924;2023-05-21T07:54:41;100994.03;;;22.96;44.05
73842;BME280;62184;52.006;5.924;2023-05-21T07:57:07;100986.91;;;23.06;44.21
73842;BME280;62184;52.006;5.924;2023-05-21T07:59:33;100981.97;;;23.11;43.36
73842;BME280;62184;52.006;5.924;2023-05-21T08:02:00;100975.03;;;23.07;42.98
73842;BME280;62184;52.006;5.924;2023-05-21T08:04:26;100973.28;;;23.06;43.31
73842;BME280;62184;52.006;5.924;2023-05-21T08:06:52;100970.88;;;23.14;44.09
73842;BME280;62184;52.006;5.924;2023-05-21T08:09:19;100971.38;;;23.19;43.89
73842;BME280;62184;52.006;5.924;2023-05-21T08:11:48;100963.00;;;23.23;43.94
73842;BME280;62184;52.006;5.924;2023-05-21T08:14:14;100964.28;;;23.30;43.86
73842;BME280;62184;52.006;5.924;2023-05-21T08:16:41;100956.16;;;23.41;43.60
73842;BME280;62184;52.006;5.924;2023-05-21T08:19:07;100960.53;;;23.54;43.41
73842;BME280;62184;52.006;5.924;2023-05-21T08:21:33;100971.84;;;23.61;43.08
73842;BME280;62184;52.006;5.924;2023-05-21T08:24:00;100965.13;;;23.54;42.71
73842;BME280;62184;52.006;5.924;2023-05-21T08:26:26;100961.94;;;23.60;42.74
73842;BME280;62184;52.006;5.924;2023-05-21T08:28:55;100962.50;;;23.76;43.83
73842;BME280;62184;52.006;5.924;2023-05-21T08:31:22;100969.78;;;24.00;43.00
73842;BME280;62184;52.006;5.924;2023-05-21T08:33:52;100968.06;;;24.10;42.37
73842;BME280;62184;52.006;5.924;2023-05-21T08:36:19;100970.28;;;24.16;42.47
73842;BME280;62184;52.006;5.924;2023-05-21T08:38:45;100967.06;;;24.22;41.97
73842;BME280;62184;52.006;5.924;2023-05-21T08:41:12;100967.81;;;24.24;41.47
73842;BME280;62184;52.006;5.924;2023-05-21T08:43:40;100965.34;;;24.32;42.12
73842;BME280;62184;52.006;5.924;2023-05-21T08:46:09;100960.25;;;24.50;41.96
73842;BME280;62184;52.006;5.924;2023-05-21T08:48:37;100971.19;;;24.61;40.81
73842;BME280;62184;52.006;5.924;2023-05-21T08:51:04;100967.88;;;24.68;41.15
73842;BME280;62184;52.006;5.924;2023-05-21T08:53:31;100957.41;;;24.85;41.40
73842;BME280;62184;52.006;5.924;2023-05-21T08:55:58;100972.31;;;24.92;40.85
73842;BME280;62184;52.006;5.924;2023-05-21T08:58:26;100968.69;;;24.91;40.94
73842;BME280;62184;52.006;5.924;2023-05-21T09:00:55;100966.53;;;25.06;41.19
73842;BME280;62184;52.006;5.924;2023-05-21T09:03:25;100965.25;;;25.21;41.52
73842;BME280;62184;52.006;5.924;2023-05-21T09:05:52;100966.88;;;25.35;41.20
73842;BME280;62184;52.006;5.924;2023-05-21T09:08:25;100958.56;;;25.57;41.70
73842;BME280;62184;52.006;5.924;2023-05-21T09:10:57;100959.22;;;25.70;40.91
73842;BME280;62184;52.006;5.924;2023-05-21T09:13:24;100952.63;;;25.73;39.53
73842;BME280;62184;52.006;5.924;2023-05-21T09:15:52;100964.47;;;25.73;39.41
73842;BME280;62184;52.006;5.924;2023-05-21T09:18:18;100958.84;;;25.75;39.59
73842;BME280;62184;52.006;5.924;2023-05-21T09:20:47;100962.19;;;25.78;39.82
73842;BME280;62184;52.006;5.924;2023-05-21T09:23:16;100958.66;;;25.67;40.60
73842;BME280;62184;52.006;5.924;2023-05-21T09:25:44;100947.91;;;25.75;40.72
73842;BME280;62184;52.006;5.924;2023-05-21T09:28:11;100954.03;;;25.88;39.72
73842;BME280;62184;52.006;5.924;2023-05-21T09:30:43;100949.34;;;26.11;39.48
73842;BME280;62184;52.006;5.924;2023-05-21T09:33:10;100952.66;;;26.14;39.14
73842;BME280;62184;52.006;5.924;2023-05-21T09:35:36;100950.00;;;26.03;38.56
73842;BME280;62184;52.006;5.924;2023-05-21T09:38:07;100949.16;;;26.03;40.23
73842;BME280;62184;52.006;5.924;2023-05-21T09:40:34;100948.25;;;26.23;39.86
73842;BME280;62184;52.006;5.924;2023-05-21T09:43:00;100953.50;;;26.36;38.54
73842;BME280;62184;52.006;5.924;2023-05-21T09:45:27;100938.50;;;26.40;38.79
73842;BME280;62184;52.006;5.924;2023-05-21T09:47:55;100946.88;;;26.38;39.20
73842;BME280;62184;52.006;5.924;2023-05-21T09:50:22;100946.13;;;26.57;38.44
73842;BME280;62184;52.006;5.924;2023-05-21T09:52:50;100935.91;;;26.59;38.15
73842;BME280;62184;52.006;5.924;2023-05-21T09:55:21;100933.41;;;26.56;38.25
73842;BME280;62184;52.006;5.924;2023-05-21T09:57:49;100943.50;;;26.55;37.94
73842;BME280;62184;52.006;5.924;2023-05-21T10:00:17;100931.72;;;26.65;38.86
73842;BME280;62184;52.006;5.924;2023-05-21T10:02:46;100945.78;;;26.90;38.40
73842;BME280;62184;52.006;5.924;2023-05-21T10:05:14;100940.75;;;26.95;38.11
73842;BME280;62184;52.006;5.924;2023-05-21T10:07:44;100929.50;;;26.99;38.29
73842;BME280;62184;52.006;5.924;2023-05-21T10:10:14;100925.31;;;26.94;38.80
73842;BME280;62184;52.006;5.924;2023-05-21T10:12:52;100925.88;;;26.98;38.31
73842;BME280;62184;52.006;5.924;2023-05-21T10:15:23;100920.72;;;26.95;38.02
73842;BME280;62184;52.006;5.924;2023-05-21T10:17:54;100918.38;;;26.90;37.62
73842;BME280;62184;52.006;5.924;2023-05-21T10:20:22;100919.81;;;26.85;37.85
73842;BME280;62184;52.006;5.924;2023-05-21T10:22:49;100918.09;;;26.93;37.99
73842;BME280;62184;52.006;5.924;2023-05-21T10:25:17;100924.31;;;27.15;38.85
73842;BME280;62184;52.006;5.924;2023-05-21T10:27:48;100919.31;;;27.29;37.69
73842;BME280;62184;52.006;5.924;2023-05-21T10:30:17;100912.53;;;27.34;37.48
73842;BME280;62184;52.006;5.924;2023-05-21T10:32:45;100909.50;;;27.46;38.69
73842;BME280;62184;52.006;5.924;2023-05-21T10:35:14;100913.38;;;27.63;38.17
73842;BME280;62184;52.006;5.924;2023-05-21T10:37:42;100905.31;;;27.61;38.06
73842;BME280;62184;52.006;5.924;2023-05-21T10:40:10;100910.06;;;27.59;37.77
73842;BME280;62184;52.006;5.924;2023-05-21T10:43:02;100906.59;;;27.48;37.53
73842;BME280;62184;52.006;5.924;2023-05-21T10:45:53;100910.53;;;27.45;37.94
73842;BME280;62184;52.006;5.924;2023-05-21T10:48:49;100908.78;;;27.44;38.42
73842;BME280;62184;52.006;5.924;2023-05-21T10:51:27;100897.81;;;27.44;37.20
73842;BME280;62184;52.006;5.924;2023-05-21T10:57:15;100900.09;;;27.49;37.07
73842;BME280;62184;52.006;5.924;2023-05-21T10:59:56;100911.69;;;27.52;37.79
73842;BME280;62184;52.006;5.924;2023-05-21T11:02:25;100898.78;;;27.72;37.94
73842;BME280;62184;52.006;5.924;2023-05-21T11:04:57;100900.38;;;27.84;37.24
73842;BME280;62184;52.006;5.924;2023-05-21T11:07:55;100898.66;;;27.83;37.36
73842;BME280;62184;52.006;5.924;2023-05-21T11:10:38;100895.91;;;27.83;37.31
73842;BME280;62184;52.006;5.924;2023-05-21T11:13:09;100898.06;;;27.89;38.06
73842;BME280;62184;52.006;5.924;2023-05-21T11:16:05;100896.75;;;27.93;36.41
73842;BME280;62184;52.006;5.924;2023-05-21T11:18:57;100892.50;;;28.09;38.23
73842;BME280;62184;52.006;5.924;2023-05-21T11:21:27;100888.97;;;28.26;36.99
73842;BME280;62184;52.006;5.924;2023-05-21T11:24:04;100889.13;;;28.24;37.07
73842;BME280;62184;52.006;5.924;2023-05-21T11:26:59;100887.97;;;28.27;37.57
73842;BME280;62184;52.006;5.924;2023-05-21T11:29:40;100881.84;;;28.42;36.23
73842;BME280;62184;52.006;5.924;2023-05-21T11:32:11;100868.44;;;28.57;36.93
73842;BME280;62184;52.006;5.924;2023-05-21T11:34:43;100876.41;;;28.60;37.33
73842;BME280;62184;52.006;5.924;2023-05-21T11:37:24;100863.38;;;28.62;37.40
73842;BME280;62184;52.006;5.924;2023-05-21T11:42:48;100866.53;;;28.85;37.30
73842;BME280;62184;52.006;5.924;2023-05-21T11:45:17;100861.13;;;28.93;36.61
73842;BME280;62184;52.006;5.924;2023-05-21T11:47:43;100869.53;;;28.92;36.62
73842;BME280;62184;52.006;5.924;2023-05-21T11:50:11;100860.03;;;28.86;37.03
73842;BME280;62184;52.006;5.924;2023-05-21T11:52:40;100870.41;;;28.92;36.92
73842;BME280;62184;52.006;5.924;2023-05-21T11:55:10;100863.88;;;28.93;36.42
73842;BME280;62184;52.006;5.924;2023-05-21T11:57:39;100861.44;;;28.90;35.70
73842;BME280;62184;52.006;5.924;2023-05-21T12:00:12;100860.53;;;28.99;36.47
73842;BME280;62184;52.006;5.924;2023-05-21T12:02:43;100854.25;;;29.25;35.95
73842;BME280;62184;52.006;5.924;2023-05-21T12:05:11;100861.53;;;29.34;35.45
73842;BME280;62184;52.006;5.924;2023-05-21T12:07:37;100847.88;;;29.24;35.17
73842;BME280;62184;52.006;5.924;2023-05-21T12:10:05;100850.78;;;29.23;35.39
73842;BME280;62184;52.006;5.924;2023-05-21T12:12:35;100838.56;;;29.43;35.75
73842;BME280;62184;52.006;5.924;2023-05-21T12:15:02;100842.78;;;29.29;35.76
73842;BME280;62184;52.006;5.924;2023-05-21T12:17:29;100848.03;;;29.23;35.23
73842;BME280;62184;52.006;5.924;2023-05-21T12:19:56;100848.44;;;29.28;35.61
73842;BME280;62184;52.006;5.924;2023-05-21T12:22:23;100846.69;;;29.27;35.05
73842;BME280;62184;52.006;5.924;2023-05-21T12:24:50;100840.09;;;29.20;34.53
73842;BME280;62184;52.006;5.924;2023-05-21T12:27:16;100842.78;;;29.29;35.67
73842;BME280;62184;52.006;5.924;2023-05-21T12:29:48;100839.91;;;29.39;35.49
73842;BME280;62184;52.006;5.924;2023-05-21T12:32:16;100842.28;;;29.34;34.43
73842;BME280;62184;52.006;5.924;2023-05-21T12:34:43;100831.28;;;29.34;34.79
73842;BME280;62184;52.006;5.924;2023-05-21T12:37:11;100830.84;;;29.46;35.48
73842;BME280;62184;52.006;5.924;2023-05-21T12:39:42;100840.06;;;29.55;35.73
73842;BME280;62184;52.006;5.924;2023-05-21T12:42:10;100831.72;;;29.47;35.74
73842;BME280;62184;52.006;5.924;2023-05-21T12:44:38;100831.66;;;29.57;36.26
73842;BME280;62184;52.006;5.924;2023-05-21T12:47:09;100823.78;;;29.62;36.27
73842;BME280;62184;52.006;5.924;2023-05-21T12:49:38;100821.91;;;29.62;35.39
73842;BME280;62184;52.006;5.924;2023-05-21T12:52:08;100823.22;;;29.58;34.83
73842;BME280;62184;52.006;5.924;2023-05-21T12:54:37;100817.22;;;29.54;35.78
73842;BME280;62184;52.006;5.924;2023-05-21T12:57:05;100808.28;;;29.61;34.51
73842;BME280;62184;52.006;5.924;2023-05-21T12:59:54;100808.88;;;29.72;34.63
73842;BME280;62184;52.006;5.924;2023-05-21T13:02:26;100806.47;;;29.69;34.47